• Join FlightAware (Why Join?)
  • Login
  • US Flag 
11:13AM EDT


 

Airport Tracker/Info


-or-


 

Live Flight TrackerFlight Track Log ✈ N30483 ✈ 24-Oct-2013 ✈ KCPC - 7FL6

Flight Track Log - Related Links

Times and Time Zones

All times are in EDT time to prevent confusion due to time zone crossing. See the N30483 flight status page for this flight to view local times or setup timezone preferences in your user account.

Time Position Orientation Groundspeed Altitude Reporting Facility
EDT Latitude Longitude Course Direction KTS MPH feet Rate Location/Type
03:43PM 33.7132 -78.9804 200° South  Level Estimated
03:44PM 33.6836 -78.9934 200° South  Level FlightAware Approximate
03:45PM 33.6543 -79.0072 201° Southwest  Level Estimated
03:46PM 33.6247 -79.0204 200° South  Level FlightAware Approximate
03:47PM 33.5952 -79.0337 200° South  Level FlightAware Approximate
03:48PM 33.5657 -79.0469 200° South  Level FlightAware Approximate
03:49PM 33.5362 -79.0601 200° South  Level FlightAware Approximate
03:49PM 31.7464 -81.0797 201° Southwest 112 129 3,000  Level Jacksonville Center
03:50PM 33.5066 -79.0733 200° South  Level FlightAware Approximate
03:50PM 31.7194 -81.0975 209° Southwest 112 129 3,000  Level Jacksonville Center
03:51PM 33.4771 -79.0865 200° South  Level FlightAware Approximate
03:51PM 31.6906 -81.1150 207° Southwest 118 136 3,000  Level Jacksonville Center
03:52PM 33.4476 -79.0997 200° South  Level FlightAware Approximate
03:52PM 31.6617 -81.1328 208° Southwest 118 136 3,000  Level Jacksonville Center
03:53PM 33.4182 -79.1135 202° Southwest  Level Estimated
03:53PM 31.6347 -81.1478 205° Southwest 118 136 3,000  Level Jacksonville Center
03:54PM 33.3888 -79.1269 201° Southwest  Level FlightAware Approximate
03:54PM 31.6056 -81.1631 204° Southwest 118 136 3,000  Level Jacksonville Center
03:55PM 31.5725 -81.1808 205° Southwest 113 130 3,000  Level Jacksonville Center
03:56PM 31.5456 -81.1958 205° Southwest 113 130 3,000  Level Jacksonville Center
03:57PM 31.5164 -81.2111 204° Southwest 113 130 3,000  Level Jacksonville Center
03:58PM 31.4894 -81.2261 205° Southwest 113 130 3,000  Level Jacksonville Center
03:59PM 31.4564 -81.2414 202° Southwest 113 130 3,000  Level Jacksonville Center
04:00PM 31.4253 -81.2564 202° Southwest 113 130 3,000  Level Jacksonville Center
04:01PM 31.3942 -81.2692 199° South 113 130 3,000  Level Jacksonville Center
04:02PM 31.3672 -81.2819 202° Southwest 113 130 3,000  Level Jacksonville Center
04:03PM 31.3358 -81.2969 202° Southwest 118 136 3,000  Level Jacksonville Center
04:04PM 31.3006 -81.3097 197° South 118 136 3,000  Level Jacksonville Center
04:05PM 31.2694 -81.3247 202° Southwest 123 142 3,000  Level Jacksonville Center
04:06PM 31.2383 -81.3375 199° South 129 148 3,000  Level Jacksonville Center
04:07PM 31.2114 -81.3500 202° Southwest 129 148 3,000  Level Jacksonville Center
04:08PM 31.1781 -81.3628 198° South 129 148 3,000  Level Jacksonville Center
04:09PM 31.1450 -81.3778 201° Southwest 129 148 3,000  Level Jacksonville Center
04:10PM 31.1136 -81.3906 199° South 134 154 3,000  Level Jacksonville Center
04:10PM 31.1117 -81.3956 246° West 123 142 3,000  Level Jacksonville Center
04:11PM 31.0825 -81.4031 192° South 120 138 3,000  Level Jacksonville Center
04:11PM 31.0825 -81.4031 192° South 127 146 3,000  Level Jacksonville Center
04:12PM 31.0514 -81.4158 199° South 127 146 3,000  Level Jacksonville Center
04:12PM 31.0472 -81.4158 180° South 121 139 3,000  Level Jacksonville Center
04:13PM 31.0181 -81.4283 200° South 127 146 3,000  Level Jacksonville Center
04:13PM 31.0139 -81.4236 136° Southeast 131 151 3,000  Level Jacksonville Center
04:14PM 30.9828 -81.4361 199° South 121 139 3,000  Level Jacksonville Center
04:14PM 30.9847 -81.4386 312° West 127 146 3,000  Level Jacksonville Center
04:15PM 30.9514 -81.4489 195° South 127 146 3,000  Level Jacksonville Center
04:15PM 30.9453 -81.4514 199° South 124 143 3,000  Level Jacksonville Center
04:16PM 30.9161 -81.4589 192° South 127 146 3,000  Level Jacksonville Center
04:16PM 30.9142 -81.4592 187° South 123 142 3,000  Level Jacksonville Center
04:17PM 30.8806 -81.4594 180° South 127 146 3,000  Level Jacksonville Center
04:17PM 30.8703 -81.4525 150° Southeast 154 177  Descending Jacksonville Center
04:18PM 30.8450 -81.4578 190° South 127 146 3,000 2,940 Climbing Jacksonville Center
04:18PM 30.8389 -81.4531 146° Southeast 123 142 3,000  Level Jacksonville Center
04:19PM 30.8097 -81.4533 180° South 127 146 3,000  Level Jacksonville Center
04:19PM 30.8033 -81.4511 163° South 129 148 3,000  Level Jacksonville Center
04:20PM 30.7719 -81.4492 177° South 127 146 3,000  Level Jacksonville Center
04:20PM 30.7658 -81.4492 180° South 135 155 3,000  Level Jacksonville Center
04:21PM 30.7281 -81.4475 178° South 131 151 3,000  Level Jacksonville Center
04:22PM 30.6947 -81.4456 177° South 131 151 3,000  Level Jacksonville Center
04:23PM 30.6569 -81.4411 174° South 131 151 3,000  Level Jacksonville Center
04:24PM 30.6194 -81.4419 181° South 130 150 3,000  Level Jacksonville Center
04:25PM 30.5839 -81.4400 177° South 135 155 3,000  Level Jacksonville Center
04:26PM 30.5464 -81.4406 181° South 133 153 3,000  Level Jacksonville Center
04:27PM 30.5089 -81.4411 181° South 132 152 3,000  Level Jacksonville Center
04:28PM 30.4692 -81.4344 172° South 135 155 3,000  Level Jacksonville Center
04:29PM 30.4314 -81.4303 175° South 136 157 3,000  Level Jacksonville Center
04:30PM 30.3939 -81.4236 171° South 135 155 3,000  Level Jacksonville Center
04:31PM 30.3561 -81.4192 174° South 135 155 3,000  Level Jacksonville Center
04:32PM 30.3164 -81.4150 175° South 139 160 3,000  Level Jacksonville Center
04:33PM 30.2744 -81.4086 173° South 137 158 3,000  Level Jacksonville Center
04:34PM 30.2411 -81.4042 173° South 138 159 3,000  Level Jacksonville Center
04:35PM 30.2056 -81.4000 174° South 127 146 3,000  Level Jacksonville Center
04:36PM 30.1700 -81.3981 177° South 128 147 3,000  Level Jacksonville Center
04:37PM 30.1303 -81.3964 178° South 135 155 3,000  Level Jacksonville Center
04:38PM 30.0928 -81.3922 175° South 125 144 3,000  Level Jacksonville Center
04:39PM 30.0572 -81.3856 171° South 125 144 3,000  Level Jacksonville Center
04:40PM 30.0217 -81.3811 174° South 122 140 3,000  Level Jacksonville Center
04:41PM 29.9881 -81.3744 170° South 124 143 3,000  Level Jacksonville Center
04:42PM 29.9608 -81.3656 164° South 125 144 3,000  Level Jacksonville Center
04:43PM 29.9211 -81.3542 166° South 128 147 3,000  Level Jacksonville Center
04:44PM 29.8917 -81.3450 165° South 127 146 3,000  Level Jacksonville Center
04:45PM 29.8561 -81.3383 171° South 127 146 3,000  Level Jacksonville Center
04:46PM 29.8206 -81.3244 161° South 128 147 3,000  Level Jacksonville Center
04:47PM 29.7869 -81.3178 170° South 128 147 3,000  Level Jacksonville Center
04:48PM 29.7514 -81.3136 174° South 130 150 3,000  Level Jacksonville Center
04:49PM 29.7097 -81.3072 172° South 128 147 3,000  Level Jacksonville Center
04:50PM 29.6739 -81.2911 159° South 124 143 3,000  Level Jacksonville Center
04:51PM 29.6383 -81.2725 156° South 123 142 3,000  Level Jacksonville Center
04:52PM 29.6067 -81.2564 156° South 122 140 3,000  Level Jacksonville Center
04:53PM 29.5772 -81.2353 148° Southeast 123 142 3,000  Level Jacksonville Center
04:54PM 29.5478 -81.2192 155° Southeast 128 147 3,000  Level Jacksonville Center
04:55PM 29.5142 -81.2031 157° South 122 140 3,000  Level Jacksonville Center
04:56PM 29.4828 -81.1917 162° South 123 142 3,000  Level Jacksonville Center
04:57PM 29.4472 -81.1803 164° South 125 144 3,000  Level Jacksonville Center
04:58PM 29.4178 -81.1664 158° South 125 144 3,000  Level Jacksonville Center
04:59PM 29.3819 -81.1528 162° South 124 143 3,000 -60 Level Jacksonville Center
05:01PM 29.3403 -81.1439 169° South 126 145 2,900 -240 Descending Jacksonville Center
05:02PM 29.3044 -81.1328 165° South 133 153 2,500 -240 Descending Jacksonville Center
05:02PM 29.2731 -81.1239 166° South 129 148 2,500 -60 Level Jacksonville Center
05:03PM 29.2375 -81.1219 177° South 134 154 2,400  Descending Jacksonville Center
05:04PM 29.2039 -81.1011 152° Southeast 131 151 2,500 60 Climbing Jacksonville Center
05:06PM 29.1547 -81.0524 156° South  Level FlightAware Approximate